Pagina principale
METAR-TAF:

METAR-TAF

Aeroporti :

Aeroporto di Cefalonia

Cefalonia, Grecia

latitudine: 38-07N, longitudine: 020-30E, altezza: 19 m

Osservazione

Il bollettino è stato emesso 54 minuti fa, alle 05:50 UTC
Vento 12 kt da est
Temperature 12°C
Umidità 94%
Pressione 1015 hPa
Visibilità 10 km o più
Poco nuvoloso ad un'altezza di 1600 ft

METAR: LGKF 210550Z 09012KT 9999 FEW016 12/11 Q1015

Ora: 08:44 (06:44 UTC)

Previsione

Il bollettino è stato emesso 1 ora e 44 minuti fa, alle 05:00 UTC
Previsione valida dal 21 alle 06 UTC al 21 alle 15 UTC
Vento 5 kt da direzioni variabili
Visibilità 10 km o più
Poco nuvoloso ad un'altezza di 1600 ft
Evoluzione graduale
dal 21 alle 09 UTC al 21 alle 11 UTC
Vento 10 kt da sud-ovest

TAF: LGKF 210500Z 2106/2115 VRB05KT 9999 FEW016 BECMG 2109/2111 22010KT

Osservazioni e previsioni meteorologiche di più di 4000 aeroporti (messaggi METAR e TAF).

Le stazioni disponibili sono rappresentate dai dischi gialli e rossi sulla carta.

Puntare il mouse per vedere il nome della stazione.

Clicca sopra per visualizzare le osservazioni e previsioni meteorologiche.

Per cambiare la mappa : fare clic sui pulsanti verdi con una croce nera per ingrandire, il pulsante verde con un trattino per diminuire, o sulla freccia verde per le mappe adiacenti.


METAR-TAF: